VYMD/MDL METAR and TAF weather

Enter ICAO airport designator
Station Type Date Time Source
VYMD METAR 2019/06/19 00:30 UTC NOAA

VYMD 190030Z 12006KT 6000 SCT018 FEW020CB SCT100 27/24 Q1002


Station Type Date Time Source
VYMD Decoded METAR 2019/06/19 00:30 UTC NOAA

Station name not available
Jun 18, 2019 - 08:30 PM EDT / 2019.06.19 0030 UTC
Wind: from the ESE (120 degrees) at 7 MPH (6 KT):0
Visibility: 3 mile(s):0
Sky conditions: partly cloudy
Weather: Cumulonimbus clouds observed
Temperature: 80 F (27 C)
Dew Point: 75 F (24 C)
Relative Humidity: 83%
Pressure (altimeter): 29.59 in. Hg (1002 hPa)
ob: VYMD 190030Z 12006KT 6000 SCT018 FEW020CB SCT100 27/24 Q1002
cycle: 0

Station Type Date Time Source
VYMD TAF 2019/06/18 18:00 UTC NOAA

TAF VYMD 181700Z 1818/1918 12008KT 6000 BKN020 BKN120
TEMPO 1818/1824 14008KT 6000 BKN018 FEW020CB BKN100

Example: see airport list